sensor_id;sensor_type;location;lat;lon;timestamp;P1;durP1;ratioP1;P2;durP2;ratioP2
1336;SDS011;662;48.814;9.318;2023-07-09T00:01:50;5.07;;;3.37;;
1336;SDS011;662;48.814;9.318;2023-07-09T00:04:17;3.40;;;3.10;;
1336;SDS011;662;48.814;9.318;2023-07-09T00:06:44;3.70;;;2.77;;
1336;SDS011;662;48.814;9.318;2023-07-09T00:09:12;3.37;;;3.00;;
1336;SDS011;662;48.814;9.318;2023-07-09T00:11:43;3.50;;;3.10;;
1336;SDS011;662;48.814;9.318;2023-07-09T00:14:11;3.93;;;3.00;;
1336;SDS011;662;48.814;9.318;2023-07-09T00:16:39;3.23;;;2.67;;
1336;SDS011;662;48.814;9.318;2023-07-09T00:19:12;3.03;;;2.77;;
1336;SDS011;662;48.814;9.318;2023-07-09T00:21:42;3.40;;;2.73;;
1336;SDS011;662;48.814;9.318;2023-07-09T00:24:10;2.90;;;2.60;;
1336;SDS011;662;48.814;9.318;2023-07-09T00:26:37;3.50;;;2.57;;
1336;SDS011;662;48.814;9.318;2023-07-09T00:29:07;3.90;;;2.43;;
1336;SDS011;662;48.814;9.318;2023-07-09T00:31:33;5.23;;;2.77;;
1336;SDS011;662;48.814;9.318;2023-07-09T00:33:59;3.20;;;2.83;;
1336;SDS011;662;48.814;9.318;2023-07-09T00:36:26;4.40;;;2.80;;
1336;SDS011;662;48.814;9.318;2023-07-09T00:38:55;3.40;;;3.00;;
1336;SDS011;662;48.814;9.318;2023-07-09T00:41:31;3.53;;;3.23;;
1336;SDS011;662;48.814;9.318;2023-07-09T00:44:12;4.90;;;2.97;;
1336;SDS011;662;48.814;9.318;2023-07-09T00:49:12;3.47;;;2.97;;
1336;SDS011;662;48.814;9.318;2023-07-09T00:51:42;3.23;;;2.93;;
1336;SDS011;662;48.814;9.318;2023-07-09T00:54:18;3.70;;;3.13;;
1336;SDS011;662;48.814;9.318;2023-07-09T00:56:55;3.47;;;3.17;;
1336;SDS011;662;48.814;9.318;2023-07-09T00:59:31;3.10;;;2.37;;
1336;SDS011;662;48.814;9.318;2023-07-09T01:01:57;3.10;;;2.30;;
1336;SDS011;662;48.814;9.318;2023-07-09T01:04:25;5.43;;;2.40;;
1336;SDS011;662;48.814;9.318;2023-07-09T01:06:53;3.33;;;2.57;;
1336;SDS011;662;48.814;9.318;2023-07-09T01:09:20;2.83;;;2.60;;
1336;SDS011;662;48.814;9.318;2023-07-09T01:11:47;2.97;;;2.60;;
1336;SDS011;662;48.814;9.318;2023-07-09T01:14:13;4.17;;;2.70;;
1336;SDS011;662;48.814;9.318;2023-07-09T01:17:03;3.37;;;2.77;;
1336;SDS011;662;48.814;9.318;2023-07-09T01:19:35;5.60;;;3.60;;
1336;SDS011;662;48.814;9.318;2023-07-09T01:22:08;3.30;;;2.77;;
1336;SDS011;662;48.814;9.318;2023-07-09T01:24:50;4.60;;;3.47;;
1336;SDS011;662;48.814;9.318;2023-07-09T01:27:26;3.70;;;3.10;;
1336;SDS011;662;48.814;9.318;2023-07-09T01:29:55;2.50;;;2.30;;
1336;SDS011;662;48.814;9.318;2023-07-09T01:32:22;3.47;;;2.70;;
1336;SDS011;662;48.814;9.318;2023-07-09T01:34:49;3.77;;;2.63;;
1336;SDS011;662;48.814;9.318;2023-07-09T01:37:20;3.00;;;2.80;;
1336;SDS011;662;48.814;9.318;2023-07-09T01:39:48;6.80;;;3.40;;
1336;SDS011;662;48.814;9.318;2023-07-09T01:42:16;3.47;;;3.07;;
1336;SDS011;662;48.814;9.318;2023-07-09T01:44:44;3.03;;;2.70;;
1336;SDS011;662;48.814;9.318;2023-07-09T01:47:11;4.10;;;3.57;;
1336;SDS011;662;48.814;9.318;2023-07-09T01:49:37;4.20;;;2.93;;
1336;SDS011;662;48.814;9.318;2023-07-09T01:52:05;3.30;;;3.00;;
1336;SDS011;662;48.814;9.318;2023-07-09T01:54:33;3.53;;;2.97;;
1336;SDS011;662;48.814;9.318;2023-07-09T01:57:12;5.17;;;3.03;;
1336;SDS011;662;48.814;9.318;2023-07-09T01:59:40;4.30;;;3.47;;
1336;SDS011;662;48.814;9.318;2023-07-09T02:02:07;7.20;;;3.23;;
1336;SDS011;662;48.814;9.318;2023-07-09T02:04:33;3.13;;;2.83;;
1336;SDS011;662;48.814;9.318;2023-07-09T02:06:59;3.17;;;2.80;;
1336;SDS011;662;48.814;9.318;2023-07-09T02:09:24;3.40;;;2.57;;
1336;SDS011;662;48.814;9.318;2023-07-09T02:11:50;3.77;;;3.47;;
1336;SDS011;662;48.814;9.318;2023-07-09T02:14:16;8.17;;;3.27;;
1336;SDS011;662;48.814;9.318;2023-07-09T02:16:41;4.53;;;3.50;;
1336;SDS011;662;48.814;9.318;2023-07-09T02:19:08;3.20;;;2.90;;
1336;SDS011;662;48.814;9.318;2023-07-09T02:21:34;3.40;;;2.87;;
1336;SDS011;662;48.814;9.318;2023-07-09T02:23:59;4.37;;;3.10;;
1336;SDS011;662;48.814;9.318;2023-07-09T02:26:25;3.70;;;3.40;;
1336;SDS011;662;48.814;9.318;2023-07-09T02:28:51;3.77;;;2.87;;
1336;SDS011;662;48.814;9.318;2023-07-09T02:31:16;3.50;;;3.20;;
1336;SDS011;662;48.814;9.318;2023-07-09T02:33:42;3.10;;;2.80;;
1336;SDS011;662;48.814;9.318;2023-07-09T02:36:07;4.87;;;3.30;;
1336;SDS011;662;48.814;9.318;2023-07-09T02:38:33;3.63;;;2.83;;
1336;SDS011;662;48.814;9.318;2023-07-09T02:40:59;3.40;;;3.10;;
1336;SDS011;662;48.814;9.318;2023-07-09T02:43:24;4.60;;;3.20;;
1336;SDS011;662;48.814;9.318;2023-07-09T02:45:50;4.07;;;3.57;;
1336;SDS011;662;48.814;9.318;2023-07-09T02:48:15;4.23;;;3.47;;
1336;SDS011;662;48.814;9.318;2023-07-09T02:50:41;3.63;;;3.03;;
1336;SDS011;662;48.814;9.318;2023-07-09T02:53:07;4.03;;;3.47;;
1336;SDS011;662;48.814;9.318;2023-07-09T02:55:32;4.40;;;3.13;;
1336;SDS011;662;48.814;9.318;2023-07-09T02:57:59;3.50;;;3.00;;
1336;SDS011;662;48.814;9.318;2023-07-09T03:00:25;3.97;;;3.57;;
1336;SDS011;662;48.814;9.318;2023-07-09T03:02:51;6.40;;;3.50;;
1336;SDS011;662;48.814;9.318;2023-07-09T03:05:16;4.20;;;3.50;;
1336;SDS011;662;48.814;9.318;2023-07-09T03:07:42;3.70;;;3.33;;
1336;SDS011;662;48.814;9.318;2023-07-09T03:10:07;3.30;;;3.00;;
1336;SDS011;662;48.814;9.318;2023-07-09T03:12:33;4.87;;;3.60;;
1336;SDS011;662;48.814;9.318;2023-07-09T03:14:59;4.03;;;3.30;;
1336;SDS011;662;48.814;9.318;2023-07-09T03:17:25;3.73;;;3.10;;
1336;SDS011;662;48.814;9.318;2023-07-09T03:19:50;4.53;;;3.17;;
1336;SDS011;662;48.814;9.318;2023-07-09T03:22:16;4.30;;;3.50;;
1336;SDS011;662;48.814;9.318;2023-07-09T03:24:41;3.57;;;3.27;;
1336;SDS011;662;48.814;9.318;2023-07-09T03:27:07;3.43;;;3.13;;
1336;SDS011;662;48.814;9.318;2023-07-09T03:29:34;3.93;;;3.50;;
1336;SDS011;662;48.814;9.318;2023-07-09T03:31:59;4.83;;;3.40;;
1336;SDS011;662;48.814;9.318;2023-07-09T03:34:25;4.13;;;3.60;;
1336;SDS011;662;48.814;9.318;2023-07-09T03:36:50;3.37;;;3.07;;
1336;SDS011;662;48.814;9.318;2023-07-09T03:39:16;3.77;;;3.33;;
1336;SDS011;662;48.814;9.318;2023-07-09T03:41:42;3.70;;;3.23;;
1336;SDS011;662;48.814;9.318;2023-07-09T03:44:10;3.97;;;3.30;;
1336;SDS011;662;48.814;9.318;2023-07-09T03:46:36;4.33;;;3.30;;
1336;SDS011;662;48.814;9.318;2023-07-09T03:49:01;3.53;;;3.13;;
1336;SDS011;662;48.814;9.318;2023-07-09T03:51:27;5.50;;;3.83;;
1336;SDS011;662;48.814;9.318;2023-07-09T03:53:53;3.60;;;3.30;;
1336;SDS011;662;48.814;9.318;2023-07-09T03:56:18;4.40;;;3.20;;
1336;SDS011;662;48.814;9.318;2023-07-09T03:58:44;4.00;;;3.40;;
1336;SDS011;662;48.814;9.318;2023-07-09T04:01:10;3.33;;;3.03;;
1336;SDS011;662;48.814;9.318;2023-07-09T04:03:35;4.50;;;3.27;;
1336;SDS011;662;48.814;9.318;2023-07-09T04:06:01;3.40;;;3.10;;
1336;SDS011;662;48.814;9.318;2023-07-09T04:08:26;3.50;;;3.20;;
1336;SDS011;662;48.814;9.318;2023-07-09T04:10:53;3.50;;;3.20;;
1336;SDS011;662;48.814;9.318;2023-07-09T04:13:21;4.10;;;3.70;;
1336;SDS011;662;48.814;9.318;2023-07-09T04:15:47;4.10;;;3.70;;
1336;SDS011;662;48.814;9.318;2023-07-09T04:18:13;3.93;;;3.53;;
1336;SDS011;662;48.814;9.318;2023-07-09T04:20:38;6.07;;;3.87;;
1336;SDS011;662;48.814;9.318;2023-07-09T04:23:05;3.30;;;3.00;;
1336;SDS011;662;48.814;9.318;2023-07-09T04:25:31;4.83;;;3.23;;
1336;SDS011;662;48.814;9.318;2023-07-09T04:27:57;4.80;;;3.27;;
1336;SDS011;662;48.814;9.318;2023-07-09T04:30:22;4.80;;;3.20;;
1336;SDS011;662;48.814;9.318;2023-07-09T04:32:49;4.60;;;3.90;;
1336;SDS011;662;48.814;9.318;2023-07-09T04:35:14;3.30;;;3.00;;
1336;SDS011;662;48.814;9.318;2023-07-09T04:37:40;3.73;;;3.33;;
1336;SDS011;662;48.814;9.318;2023-07-09T04:40:07;4.07;;;3.13;;
1336;SDS011;662;48.814;9.318;2023-07-09T04:42:35;5.03;;;3.97;;
1336;SDS011;662;48.814;9.318;2023-07-09T04:45:02;4.87;;;3.80;;
1336;SDS011;662;48.814;9.318;2023-07-09T04:47:28;4.07;;;3.67;;
1336;SDS011;662;48.814;9.318;2023-07-09T04:49:54;5.50;;;3.87;;
1336;SDS011;662;48.814;9.318;2023-07-09T04:52:20;4.13;;;3.53;;
1336;SDS011;662;48.814;9.318;2023-07-09T04:54:47;3.40;;;3.07;;
1336;SDS011;662;48.814;9.318;2023-07-09T04:57:15;3.97;;;3.57;;
1336;SDS011;662;48.814;9.318;2023-07-09T04:59:41;5.80;;;3.53;;
1336;SDS011;662;48.814;9.318;2023-07-09T05:02:07;3.93;;;3.53;;
1336;SDS011;662;48.814;9.318;2023-07-09T05:04:33;4.10;;;3.73;;
1336;SDS011;662;48.814;9.318;2023-07-09T05:06:59;5.13;;;3.63;;
1336;SDS011;662;48.814;9.318;2023-07-09T05:09:24;4.13;;;3.60;;
1336;SDS011;662;48.814;9.318;2023-07-09T05:11:50;5.87;;;3.47;;
1336;SDS011;662;48.814;9.318;2023-07-09T05:14:16;4.53;;;3.97;;
1336;SDS011;662;48.814;9.318;2023-07-09T05:16:43;3.73;;;3.27;;
1336;SDS011;662;48.814;9.318;2023-07-09T05:19:10;6.13;;;3.90;;
1336;SDS011;662;48.814;9.318;2023-07-09T05:21:37;4.30;;;3.90;;
1336;SDS011;662;48.814;9.318;2023-07-09T05:24:03;4.00;;;3.43;;
1336;SDS011;662;48.814;9.318;2023-07-09T05:26:29;4.50;;;4.07;;
1336;SDS011;662;48.814;9.318;2023-07-09T05:28:55;5.60;;;3.53;;
1336;SDS011;662;48.814;9.318;2023-07-09T05:31:21;4.10;;;3.40;;
1336;SDS011;662;48.814;9.318;2023-07-09T05:33:47;8.17;;;3.57;;
1336;SDS011;662;48.814;9.318;2023-07-09T05:36:13;4.40;;;4.00;;
1336;SDS011;662;48.814;9.318;2023-07-09T05:38:43;4.37;;;3.53;;
1336;SDS011;662;48.814;9.318;2023-07-09T05:41:11;3.60;;;3.10;;
1336;SDS011;662;48.814;9.318;2023-07-09T05:43:36;4.70;;;3.87;;
1336;SDS011;662;48.814;9.318;2023-07-09T05:46:02;3.90;;;3.57;;
1336;SDS011;662;48.814;9.318;2023-07-09T05:48:29;5.40;;;4.27;;
1336;SDS011;662;48.814;9.318;2023-07-09T05:50:55;4.67;;;3.57;;
1336;SDS011;662;48.814;9.318;2023-07-09T05:53:21;5.87;;;4.10;;
1336;SDS011;662;48.814;9.318;2023-07-09T05:55:47;4.07;;;3.77;;
1336;SDS011;662;48.814;9.318;2023-07-09T05:58:13;5.37;;;3.80;;
1336;SDS011;662;48.814;9.318;2023-07-09T06:00:39;4.37;;;3.73;;
1336;SDS011;662;48.814;9.318;2023-07-09T06:03:06;6.60;;;3.80;;
1336;SDS011;662;48.814;9.318;2023-07-09T06:05:32;7.53;;;3.77;;
1336;SDS011;662;48.814;9.318;2023-07-09T06:07:58;4.50;;;4.10;;
1336;SDS011;662;48.814;9.318;2023-07-09T06:10:24;4.80;;;4.40;;
1336;SDS011;662;48.814;9.318;2023-07-09T06:12:50;4.17;;;3.67;;
1336;SDS011;662;48.814;9.318;2023-07-09T06:15:16;5.00;;;3.80;;
1336;SDS011;662;48.814;9.318;2023-07-09T06:17:41;4.00;;;3.57;;
1336;SDS011;662;48.814;9.318;2023-07-09T06:20:07;5.13;;;4.60;;
1336;SDS011;662;48.814;9.318;2023-07-09T06:22:33;4.30;;;3.87;;
1336;SDS011;662;48.814;9.318;2023-07-09T06:24:59;5.83;;;4.27;;
1336;SDS011;662;48.814;9.318;2023-07-09T06:27:25;4.67;;;3.97;;
1336;SDS011;662;48.814;9.318;2023-07-09T06:29:51;4.30;;;4.00;;
1336;SDS011;662;48.814;9.318;2023-07-09T06:32:17;3.90;;;3.50;;
1336;SDS011;662;48.814;9.318;2023-07-09T06:34:44;4.50;;;4.07;;
1336;SDS011;662;48.814;9.318;2023-07-09T06:37:09;3.90;;;3.53;;
1336;SDS011;662;48.814;9.318;2023-07-09T06:39:35;4.40;;;3.93;;
1336;SDS011;662;48.814;9.318;2023-07-09T06:42:00;4.40;;;3.73;;
1336;SDS011;662;48.814;9.318;2023-07-09T06:44:27;5.30;;;4.27;;
1336;SDS011;662;48.814;9.318;2023-07-09T06:46:52;6.83;;;4.30;;
1336;SDS011;662;48.814;9.318;2023-07-09T06:49:18;4.20;;;3.60;;
1336;SDS011;662;48.814;9.318;2023-07-09T06:51:43;4.80;;;4.20;;
1336;SDS011;662;48.814;9.318;2023-07-09T06:54:12;11.70;;;4.40;;
1336;SDS011;662;48.814;9.318;2023-07-09T06:56:37;4.57;;;3.87;;
1336;SDS011;662;48.814;9.318;2023-07-09T06:59:03;4.60;;;4.10;;
1336;SDS011;662;48.814;9.318;2023-07-09T07:01:29;4.90;;;4.37;;
1336;SDS011;662;48.814;9.318;2023-07-09T07:03:55;4.23;;;3.77;;
1336;SDS011;662;48.814;9.318;2023-07-09T07:06:20;4.80;;;3.90;;
1336;SDS011;662;48.814;9.318;2023-07-09T07:08:46;7.93;;;4.20;;
1336;SDS011;662;48.814;9.318;2023-07-09T07:11:11;4.10;;;3.73;;
1336;SDS011;662;48.814;9.318;2023-07-09T07:13:38;4.67;;;3.87;;
1336;SDS011;662;48.814;9.318;2023-07-09T07:16:05;5.67;;;4.23;;
1336;SDS011;662;48.814;9.318;2023-07-09T07:18:32;4.20;;;3.80;;
1336;SDS011;662;48.814;9.318;2023-07-09T07:21:01;4.77;;;4.27;;
1336;SDS011;662;48.814;9.318;2023-07-09T07:23:27;5.63;;;4.23;;
1336;SDS011;662;48.814;9.318;2023-07-09T07:25:53;4.80;;;4.30;;
1336;SDS011;662;48.814;9.318;2023-07-09T07:28:20;4.87;;;4.37;;
1336;SDS011;662;48.814;9.318;2023-07-09T07:30:46;4.87;;;4.47;;
1336;SDS011;662;48.814;9.318;2023-07-09T07:33:13;4.87;;;4.47;;
1336;SDS011;662;48.814;9.318;2023-07-09T07:35:41;4.60;;;3.90;;
1336;SDS011;662;48.814;9.318;2023-07-09T07:38:07;5.20;;;4.43;;
1336;SDS011;662;48.814;9.318;2023-07-09T07:40:32;4.57;;;4.17;;
1336;SDS011;662;48.814;9.318;2023-07-09T07:42:58;5.53;;;4.50;;
1336;SDS011;662;48.814;9.318;2023-07-09T07:45:24;5.53;;;4.10;;
1336;SDS011;662;48.814;9.318;2023-07-09T07:47:50;5.87;;;3.97;;
1336;SDS011;662;48.814;9.318;2023-07-09T07:50:17;6.27;;;4.40;;
1336;SDS011;662;48.814;9.318;2023-07-09T07:52:43;4.50;;;3.87;;
1336;SDS011;662;48.814;9.318;2023-07-09T07:55:09;4.97;;;4.13;;
1336;SDS011;662;48.814;9.318;2023-07-09T07:57:35;7.50;;;4.53;;
1336;SDS011;662;48.814;9.318;2023-07-09T08:00:01;5.70;;;3.93;;
1336;SDS011;662;48.814;9.318;2023-07-09T08:02:28;4.37;;;3.97;;
1336;SDS011;662;48.814;9.318;2023-07-09T08:04:54;4.80;;;4.30;;
1336;SDS011;662;48.814;9.318;2023-07-09T08:07:19;4.47;;;3.97;;
1336;SDS011;662;48.814;9.318;2023-07-09T08:09:45;4.33;;;3.93;;
1336;SDS011;662;48.814;9.318;2023-07-09T08:12:11;4.13;;;3.73;;
1336;SDS011;662;48.814;9.318;2023-07-09T08:14:38;5.17;;;4.20;;
1336;SDS011;662;48.814;9.318;2023-07-09T08:17:05;6.50;;;4.37;;
1336;SDS011;662;48.814;9.318;2023-07-09T08:19:47;5.00;;;4.43;;
1336;SDS011;662;48.814;9.318;2023-07-09T08:22:16;5.43;;;4.80;;
1336;SDS011;662;48.814;9.318;2023-07-09T08:24:42;4.60;;;4.20;;
1336;SDS011;662;48.814;9.318;2023-07-09T08:27:08;5.20;;;4.33;;
1336;SDS011;662;48.814;9.318;2023-07-09T08:29:34;4.73;;;4.33;;
1336;SDS011;662;48.814;9.318;2023-07-09T08:32:01;4.60;;;3.93;;
1336;SDS011;662;48.814;9.318;2023-07-09T08:34:27;4.13;;;3.73;;
1336;SDS011;662;48.814;9.318;2023-07-09T08:36:53;5.00;;;4.30;;
1336;SDS011;662;48.814;9.318;2023-07-09T08:39:20;5.50;;;4.20;;
1336;SDS011;662;48.814;9.318;2023-07-09T08:42:28;5.43;;;4.23;;
1336;SDS011;662;48.814;9.318;2023-07-09T08:47:29;5.03;;;3.63;;
1336;SDS011;662;48.814;9.318;2023-07-09T08:50:02;5.40;;;4.40;;
1336;SDS011;662;48.814;9.318;2023-07-09T08:52:40;5.47;;;4.13;;
1336;SDS011;662;48.814;9.318;2023-07-09T08:57:37;4.60;;;4.20;;
1336;SDS011;662;48.814;9.318;2023-07-09T09:00:16;4.63;;;3.83;;
1336;SDS011;662;48.814;9.318;2023-07-09T09:03:00;4.73;;;4.23;;
1336;SDS011;662;48.814;9.318;2023-07-09T09:05:42;7.23;;;4.00;;
1336;SDS011;662;48.814;9.318;2023-07-09T09:10:56;5.47;;;3.87;;
1336;SDS011;662;48.814;9.318;2023-07-09T09:13:34;4.20;;;3.80;;
1336;SDS011;662;48.814;9.318;2023-07-09T09:16:02;4.10;;;3.70;;
1336;SDS011;662;48.814;9.318;2023-07-09T09:18:40;3.77;;;3.47;;
1336;SDS011;662;48.814;9.318;2023-07-09T09:21:13;3.97;;;3.60;;
1336;SDS011;662;48.814;9.318;2023-07-09T09:23:49;4.47;;;4.10;;
1336;SDS011;662;48.814;9.318;2023-07-09T09:26:21;3.80;;;3.47;;
1336;SDS011;662;48.814;9.318;2023-07-09T09:28:56;3.30;;;3.07;;
1336;SDS011;662;48.814;9.318;2023-07-09T09:31:24;3.73;;;3.10;;
1336;SDS011;662;48.814;9.318;2023-07-09T09:33:52;4.10;;;3.63;;
1336;SDS011;662;48.814;9.318;2023-07-09T09:36:20;5.27;;;3.63;;
1336;SDS011;662;48.814;9.318;2023-07-09T09:38:47;3.87;;;3.40;;
1336;SDS011;662;48.814;9.318;2023-07-09T09:41:16;4.20;;;3.63;;
1336;SDS011;662;48.814;9.318;2023-07-09T09:43:44;3.30;;;2.97;;
1336;SDS011;662;48.814;9.318;2023-07-09T09:46:21;3.10;;;2.90;;
1336;SDS011;662;48.814;9.318;2023-07-09T09:48:54;3.77;;;2.70;;
1336;SDS011;662;48.814;9.318;2023-07-09T09:51:26;5.70;;;3.30;;
1336;SDS011;662;48.814;9.318;2023-07-09T09:53:59;3.70;;;2.80;;
1336;SDS011;662;48.814;9.318;2023-07-09T09:56:27;3.60;;;3.07;;
1336;SDS011;662;48.814;9.318;2023-07-09T09:58:54;3.93;;;2.63;;
1336;SDS011;662;48.814;9.318;2023-07-09T10:01:25;3.20;;;2.90;;
1336;SDS011;662;48.814;9.318;2023-07-09T10:03:57;2.93;;;2.63;;
1336;SDS011;662;48.814;9.318;2023-07-09T10:06:28;4.30;;;3.00;;
1336;SDS011;662;48.814;9.318;2023-07-09T10:08:57;4.60;;;3.00;;
1336;SDS011;662;48.814;9.318;2023-07-09T10:11:39;3.63;;;3.03;;
1336;SDS011;662;48.814;9.318;2023-07-09T10:16:56;3.88;;;3.00;;
1336;SDS011;662;48.814;9.318;2023-07-09T10:19:35;4.07;;;2.28;;
1336;SDS011;662;48.814;9.318;2023-07-09T10:25:13;2.97;;;2.78;;
1336;SDS011;662;48.814;9.318;2023-07-09T10:33:28;2.83;;;2.50;;
1336;SDS011;662;48.814;9.318;2023-07-09T10:41:25;3.78;;;3.40;;
1336;SDS011;662;48.814;9.318;2023-07-09T10:43:56;3.10;;;2.85;;
1336;SDS011;662;48.814;9.318;2023-07-09T10:46:26;3.15;;;2.63;;
1336;SDS011;662;48.814;9.318;2023-07-09T10:48:56;5.32;;;2.72;;
1336;SDS011;662;48.814;9.318;2023-07-09T10:54:02;3.78;;;2.67;;
1336;SDS011;662;48.814;9.318;2023-07-09T10:56:55;3.35;;;3.05;;
1336;SDS011;662;48.814;9.318;2023-07-09T11:04:51;2.50;;;2.30;;
1336;SDS011;662;48.814;9.318;2023-07-09T11:07:30;3.22;;;2.92;;
1336;SDS011;662;48.814;9.318;2023-07-09T11:10:05;4.18;;;2.55;;
1336;SDS011;662;48.814;9.318;2023-07-09T11:13:02;4.03;;;2.70;;
1336;SDS011;662;48.814;9.318;2023-07-09T11:15:36;3.30;;;2.75;;
1336;SDS011;662;48.814;9.318;2023-07-09T11:18:06;5.63;;;2.45;;
1336;SDS011;662;48.814;9.318;2023-07-09T11:20:36;3.55;;;2.72;;
1336;SDS011;662;48.814;9.318;2023-07-09T11:23:18;4.57;;;2.60;;
1336;SDS011;662;48.814;9.318;2023-07-09T11:26:00;3.70;;;3.33;;
1336;SDS011;662;48.814;9.318;2023-07-09T11:28:34;3.42;;;2.58;;
1336;SDS011;662;48.814;9.318;2023-07-09T11:31:05;3.05;;;2.85;;
1336;SDS011;662;48.814;9.318;2023-07-09T11:33:33;4.03;;;3.47;;
1336;SDS011;662;48.814;9.318;2023-07-09T11:36:12;2.50;;;2.30;;
1336;SDS011;662;48.814;9.318;2023-07-09T11:38:44;3.30;;;3.00;;
1336;SDS011;662;48.814;9.318;2023-07-09T11:41:22;3.33;;;3.03;;
1336;SDS011;662;48.814;9.318;2023-07-09T11:49:21;3.72;;;3.42;;
1336;SDS011;662;48.814;9.318;2023-07-09T11:51:52;3.13;;;2.72;;
1336;SDS011;662;48.814;9.318;2023-07-09T11:54:20;4.40;;;3.38;;
1336;SDS011;662;48.814;9.318;2023-07-09T11:56:56;4.63;;;3.35;;
1336;SDS011;662;48.814;9.318;2023-07-09T11:59:22;5.00;;;3.63;;
1336;SDS011;662;48.814;9.318;2023-07-09T12:01:49;4.00;;;3.20;;
1336;SDS011;662;48.814;9.318;2023-07-09T12:04:19;3.50;;;2.92;;
1336;SDS011;662;48.814;9.318;2023-07-09T12:06:59;2.90;;;2.60;;
1336;SDS011;662;48.814;9.318;2023-07-09T12:09:31;3.30;;;3.03;;
1336;SDS011;662;48.814;9.318;2023-07-09T12:12:02;4.75;;;3.25;;
1336;SDS011;662;48.814;9.318;2023-07-09T12:14:28;3.45;;;3.13;;
1336;SDS011;662;48.814;9.318;2023-07-09T12:16:53;3.30;;;2.92;;
1336;SDS011;662;48.814;9.318;2023-07-09T12:19:21;3.17;;;2.88;;
1336;SDS011;662;48.814;9.318;2023-07-09T12:21:51;3.78;;;3.35;;
1336;SDS011;662;48.814;9.318;2023-07-09T12:24:23;4.55;;;3.30;;
1336;SDS011;662;48.814;9.318;2023-07-09T12:26:54;3.38;;;2.72;;
1336;SDS011;662;48.814;9.318;2023-07-09T12:29:28;3.58;;;3.28;;
1336;SDS011;662;48.814;9.318;2023-07-09T12:32:02;4.20;;;3.70;;
1336;SDS011;662;48.814;9.318;2023-07-09T12:34:37;3.22;;;2.95;;
1336;SDS011;662;48.814;9.318;2023-07-09T12:37:02;4.65;;;2.90;;
1336;SDS011;662;48.814;9.318;2023-07-09T12:39:29;3.97;;;2.88;;
1336;SDS011;662;48.814;9.318;2023-07-09T12:42:00;4.80;;;4.18;;
1336;SDS011;662;48.814;9.318;2023-07-09T12:44:28;6.63;;;3.83;;
1336;SDS011;662;48.814;9.318;2023-07-09T12:47:00;4.57;;;3.95;;
1336;SDS011;662;48.814;9.318;2023-07-09T12:49:27;5.53;;;4.70;;
1336;SDS011;662;48.814;9.318;2023-07-09T12:51:58;6.10;;;3.65;;
1336;SDS011;662;48.814;9.318;2023-07-09T12:54:28;5.20;;;4.53;;
1336;SDS011;662;48.814;9.318;2023-07-09T12:56:55;3.65;;;3.33;;
1336;SDS011;662;48.814;9.318;2023-07-09T12:59:25;4.18;;;3.78;;
1336;SDS011;662;48.814;9.318;2023-07-09T13:01:56;7.40;;;3.78;;
1336;SDS011;662;48.814;9.318;2023-07-09T13:04:27;3.60;;;3.28;;
1336;SDS011;662;48.814;9.318;2023-07-09T13:06:55;3.60;;;3.33;;
1336;SDS011;662;48.814;9.318;2023-07-09T13:09:24;5.60;;;3.17;;
1336;SDS011;662;48.814;9.318;2023-07-09T13:11:50;6.03;;;3.22;;
1336;SDS011;662;48.814;9.318;2023-07-09T13:14:18;4.03;;;3.58;;
1336;SDS011;662;48.814;9.318;2023-07-09T13:16:46;4.00;;;3.60;;
1336;SDS011;662;48.814;9.318;2023-07-09T13:19:12;4.05;;;3.08;;
1336;SDS011;662;48.814;9.318;2023-07-09T13:21:38;4.68;;;3.35;;
1336;SDS011;662;48.814;9.318;2023-07-09T13:24:24;3.70;;;3.15;;
1336;SDS011;662;48.814;9.318;2023-07-09T13:26:52;4.47;;;3.35;;
1336;SDS011;662;48.814;9.318;2023-07-09T13:29:18;4.03;;;3.10;;
1336;SDS011;662;48.814;9.318;2023-07-09T13:31:45;3.63;;;3.05;;
1336;SDS011;662;48.814;9.318;2023-07-09T13:36:48;3.35;;;3.05;;
1336;SDS011;662;48.814;9.318;2023-07-09T13:39:14;4.28;;;3.88;;
1336;SDS011;662;48.814;9.318;2023-07-09T13:41:44;3.85;;;3.20;;
1336;SDS011;662;48.814;9.318;2023-07-09T13:44:12;3.95;;;2.97;;
1336;SDS011;662;48.814;9.318;2023-07-09T13:46:40;3.17;;;2.80;;
1336;SDS011;662;48.814;9.318;2023-07-09T13:49:13;9.18;;;3.05;;
1336;SDS011;662;48.814;9.318;2023-07-09T13:51:43;2.83;;;2.63;;
1336;SDS011;662;48.814;9.318;2023-07-09T13:56:42;3.80;;;3.47;;
1336;SDS011;662;48.814;9.318;2023-07-09T13:59:19;3.00;;;2.70;;
1336;SDS011;662;48.814;9.318;2023-07-09T14:01:46;6.28;;;2.70;;
1336;SDS011;662;48.814;9.318;2023-07-09T14:04:14;3.83;;;2.72;;
1336;SDS011;662;48.814;9.318;2023-07-09T14:06:42;3.20;;;2.90;;
1336;SDS011;662;48.814;9.318;2023-07-09T14:09:11;3.92;;;2.70;;
1336;SDS011;662;48.814;9.318;2023-07-09T14:11:44;4.65;;;2.83;;
1336;SDS011;662;48.814;9.318;2023-07-09T14:16:55;3.85;;;2.90;;
1336;SDS011;662;48.814;9.318;2023-07-09T14:19:22;3.05;;;2.70;;
1336;SDS011;662;48.814;9.318;2023-07-09T14:21:49;3.50;;;3.20;;
1336;SDS011;662;48.814;9.318;2023-07-09T14:24:20;4.25;;;2.70;;
1336;SDS011;662;48.814;9.318;2023-07-09T14:26:51;3.20;;;2.90;;
1336;SDS011;662;48.814;9.318;2023-07-09T14:29:17;2.67;;;2.47;;
1336;SDS011;662;48.814;9.318;2023-07-09T14:31:44;4.00;;;3.00;;
1336;SDS011;662;48.814;9.318;2023-07-09T14:34:24;3.35;;;2.80;;
1336;SDS011;662;48.814;9.318;2023-07-09T14:36:54;3.50;;;2.28;;
1336;SDS011;662;48.814;9.318;2023-07-09T14:39:21;3.15;;;2.25;;
1336;SDS011;662;48.814;9.318;2023-07-09T14:41:47;3.30;;;3.00;;
1336;SDS011;662;48.814;9.318;2023-07-09T14:44:23;3.22;;;2.53;;
1336;SDS011;662;48.814;9.318;2023-07-09T14:46:51;3.85;;;2.95;;
1336;SDS011;662;48.814;9.318;2023-07-09T14:49:18;4.25;;;2.92;;
1336;SDS011;662;48.814;9.318;2023-07-09T14:51:44;2.72;;;2.53;;
1336;SDS011;662;48.814;9.318;2023-07-09T14:54:18;5.18;;;2.80;;
1336;SDS011;662;48.814;9.318;2023-07-09T14:56:51;3.10;;;2.40;;
1336;SDS011;662;48.814;9.318;2023-07-09T14:59:18;4.03;;;2.65;;
1336;SDS011;662;48.814;9.318;2023-07-09T15:01:44;3.55;;;3.20;;
1336;SDS011;662;48.814;9.318;2023-07-09T15:06:57;4.82;;;3.03;;
1336;SDS011;662;48.814;9.318;2023-07-09T15:09:24;3.50;;;3.17;;
1336;SDS011;662;48.814;9.318;2023-07-09T15:11:52;4.45;;;3.45;;
1336;SDS011;662;48.814;9.318;2023-07-09T15:14:19;5.22;;;3.17;;
1336;SDS011;662;48.814;9.318;2023-07-09T15:16:46;3.75;;;3.45;;
1336;SDS011;662;48.814;9.318;2023-07-09T15:19:16;3.78;;;3.38;;
1336;SDS011;662;48.814;9.318;2023-07-09T15:21:44;3.88;;;3.33;;
1336;SDS011;662;48.814;9.318;2023-07-09T15:24:16;3.72;;;3.03;;
1336;SDS011;662;48.814;9.318;2023-07-09T15:26:44;4.15;;;3.67;;
1336;SDS011;662;48.814;9.318;2023-07-09T15:29:13;3.78;;;3.40;;
1336;SDS011;662;48.814;9.318;2023-07-09T15:31:40;4.05;;;3.35;;
1336;SDS011;662;48.814;9.318;2023-07-09T15:34:06;3.92;;;3.25;;
1336;SDS011;662;48.814;9.318;2023-07-09T15:36:32;3.38;;;3.08;;
1336;SDS011;662;48.814;9.318;2023-07-09T15:38:58;3.58;;;3.25;;
1336;SDS011;662;48.814;9.318;2023-07-09T15:41:23;4.32;;;3.25;;
1336;SDS011;662;48.814;9.318;2023-07-09T15:43:49;3.97;;;3.22;;
1336;SDS011;662;48.814;9.318;2023-07-09T15:46:16;3.13;;;2.85;;
1336;SDS011;662;48.814;9.318;2023-07-09T15:48:44;4.23;;;3.40;;
1336;SDS011;662;48.814;9.318;2023-07-09T15:51:11;3.70;;;3.23;;
1336;SDS011;662;48.814;9.318;2023-07-09T15:53:37;3.70;;;3.28;;
1336;SDS011;662;48.814;9.318;2023-07-09T15:58:55;3.77;;;3.13;;
1336;SDS011;662;48.814;9.318;2023-07-09T16:01:21;3.80;;;3.40;;
1336;SDS011;662;48.814;9.318;2023-07-09T16:03:49;4.07;;;3.13;;
1336;SDS011;662;48.814;9.318;2023-07-09T16:06:16;3.53;;;2.90;;
1336;SDS011;662;48.814;9.318;2023-07-09T16:08:42;3.27;;;2.97;;
1336;SDS011;662;48.814;9.318;2023-07-09T16:11:15;3.77;;;3.10;;
1336;SDS011;662;48.814;9.318;2023-07-09T16:13:42;5.20;;;2.87;;
1336;SDS011;662;48.814;9.318;2023-07-09T16:16:25;3.33;;;3.03;;
1336;SDS011;662;48.814;9.318;2023-07-09T16:18:52;5.17;;;2.70;;
1336;SDS011;662;48.814;9.318;2023-07-09T16:21:28;3.30;;;3.00;;
1336;SDS011;662;48.814;9.318;2023-07-09T16:23:56;4.10;;;3.37;;
1336;SDS011;662;48.814;9.318;2023-07-09T16:26:24;3.83;;;3.40;;
1336;SDS011;662;48.814;9.318;2023-07-09T16:28:50;4.30;;;3.80;;
1336;SDS011;662;48.814;9.318;2023-07-09T16:31:16;5.10;;;3.40;;
1336;SDS011;662;48.814;9.318;2023-07-09T16:33:42;4.47;;;3.10;;